Time;durP1;ratioP1;P1;durP2;ratioP2;P2;SDS_P1;SDS_P2;PMS_P1;PMS_P2;Temp;Humidity;BMP_temperature;BMP_pressure;BME280_temperature;BME280_humidity;BME280_pressure;Samples;Min_cycle;Max_cycle;Signal;HPM_P1;HPM_P2
2021/06/11 00:00:42;;;;;;;3.37;3.07;;;25.70;56.50;;;;;;4976588;28;20421;-78
2021/06/11 00:03:08;;;;;;;3.37;3.07;;;25.70;56.50;;;;;;4974798;29;20511;-78
2021/06/11 00:05:34;;;;;;;3.40;2.50;;;25.70;56.50;;;;;;4976978;29;20406;-79
2021/06/11 00:08:00;;;;;;;2.60;2.40;;;25.70;56.50;;;;;;4974966;29;20201;-78
2021/06/11 00:10:26;;;;;;;3.20;2.90;;;25.70;56.50;;;;;;4974864;29;20190;-79
2021/06/11 00:12:52;;;;;;;3.93;3.37;;;25.80;56.60;;;;;;4976173;28;20414;-78
2021/06/11 00:15:18;;;;;;;3.50;2.90;;;25.70;56.50;;;;;;4975375;29;20533;-79
2021/06/11 00:17:47;;;;;;;2.90;2.70;;;25.70;56.50;;;;;;4974950;29;20426;-78
2021/06/11 00:20:13;;;;;;;3.63;3.30;;;25.70;56.50;;;;;;4975927;29;20449;-78
2021/06/11 00:22:38;;;;;;;2.90;2.70;;;25.70;56.50;;;;;;4990632;28;20521;-78
2021/06/11 00:25:08;;;;;;;3.30;3.00;;;25.70;56.60;;;;;;4975613;29;20431;-79
2021/06/11 00:27:35;;;;;;;3.00;2.70;;;25.70;56.60;;;;;;4975088;29;20651;-78
2021/06/11 00:30:03;;;;;;;3.40;3.20;;;25.70;56.60;;;;;;4975906;28;20406;-78
2021/06/11 00:32:29;;;;;;;3.27;2.97;;;25.70;56.60;;;;;;4974550;29;20418;-78
2021/06/11 00:34:54;;;;;;;3.67;3.37;;;25.70;56.60;;;;;;4965212;29;20427;-79
2021/06/11 00:37:20;;;;;;;3.00;2.80;;;25.70;56.60;;;;;;4959797;28;20199;-79
2021/06/11 00:39:46;;;;;;;3.63;3.33;;;25.70;56.60;;;;;;4936184;29;20495;-79
2021/06/11 00:42:12;;;;;;;3.50;3.20;;;25.70;56.60;;;;;;4935974;29;20463;-79
2021/06/11 00:44:42;;;;;;;3.30;3.00;;;25.70;56.60;;;;;;4937039;29;20423;-79
2021/06/11 00:47:07;;;;;;;3.10;2.80;;;25.70;56.60;;;;;;4936100;29;20452;-79
2021/06/11 00:49:34;;;;;;;3.40;3.10;;;25.70;56.60;;;;;;4936590;29;20456;-79
2021/06/11 00:51:59;;;;;;;3.13;2.87;;;25.70;56.60;;;;;;4938005;29;20427;-79
2021/06/11 00:54:26;;;;;;;2.90;2.67;;;25.70;56.70;;;;;;4936263;29;20416;-79
2021/06/11 00:56:52;;;;;;;2.80;2.60;;;25.70;56.70;;;;;;4937302;29;20426;-79
2021/06/11 00:59:19;;;;;;;2.97;2.77;;;25.70;56.70;;;;;;4952899;29;20423;-79
2021/06/11 01:01:47;;;;;;;3.37;3.00;;;25.70;56.70;;;;;;4937639;29;20424;-79
2021/06/11 01:04:13;;;;;;;2.80;2.60;;;25.70;56.70;;;;;;4937010;29;20470;-80
2021/06/11 01:06:51;;;;;;;3.00;2.80;;;25.70;56.70;;;;;;4951838;29;20534;-80
2021/06/11 01:09:17;;;;;;;3.20;2.93;;;25.70;56.70;;;;;;4936796;29;20918;-79
2021/06/11 01:11:45;;;;;;;2.87;2.67;;;25.60;56.60;;;;;;4952072;29;20514;-79
2021/06/11 01:14:12;;;;;;;2.77;2.57;;;25.60;56.60;;;;;;4951972;29;20452;-79
2021/06/11 01:16:39;;;;;;;2.97;2.77;;;25.60;56.70;;;;;;4952351;29;20474;-79
2021/06/11 01:19:11;;;;;;;3.40;3.10;;;25.60;56.60;;;;;;4951191;29;20439;-80
2021/06/11 01:22:12;;;;;;;3.10;2.80;;;25.60;56.60;;;;;;4951924;29;20763;-79
2021/06/11 01:24:55;;;;;;;2.90;2.70;;;25.70;56.70;;;;;;4918539;29;20419;-79
2021/06/11 01:27:21;;;;;;;2.70;2.50;;;25.60;56.70;;;;;;4937215;29;20416;-79
2021/06/11 01:29:49;;;;;;;3.27;2.97;;;25.60;56.70;;;;;;4951019;29;20423;-79
2021/06/11 01:32:16;;;;;;;3.10;2.80;;;25.60;56.70;;;;;;4951661;29;20474;-80
2021/06/11 01:34:47;;;;;;;2.40;2.20;;;25.60;56.70;;;;;;4936708;29;20839;-80
2021/06/11 01:37:20;;;;;;;2.50;2.30;;;25.60;56.70;;;;;;4935488;29;20403;-80
2021/06/11 01:39:54;;;;;;;2.60;2.40;;;25.60;56.70;;;;;;4936050;29;20443;-79
2021/06/11 01:42:22;;;;;;;2.93;2.70;;;25.70;56.80;;;;;;4935196;29;20498;-79
2021/06/11 01:44:50;;;;;;;3.40;3.10;;;25.60;56.70;;;;;;4935953;29;20431;-79
2021/06/11 01:47:16;;;;;;;2.80;2.60;;;25.60;56.70;;;;;;4935987;29;20467;-79
2021/06/11 01:49:44;;;;;;;3.10;2.63;;;25.60;56.80;;;;;;4936172;29;20416;-79
2021/06/11 01:52:11;;;;;;;2.80;2.60;;;25.60;56.70;;;;;;4935624;29;20420;-79
2021/06/11 01:54:39;;;;;;;2.80;2.60;;;25.60;56.70;;;;;;4934947;29;20459;-79
2021/06/11 01:57:08;;;;;;;2.50;2.30;;;25.60;56.70;;;;;;4951818;29;20530;-80
2021/06/11 01:59:38;;;;;;;2.80;2.60;;;25.60;56.70;;;;;;4935890;29;20454;-79
2021/06/11 02:02:05;;;;;;;2.70;2.50;;;25.60;56.70;;;;;;4935080;29;20487;-79
2021/06/11 02:04:35;;;;;;;2.87;2.67;;;25.60;56.80;;;;;;4934825;29;20420;-79
2021/06/11 02:07:07;;;;;;;2.60;2.40;;;25.60;56.80;;;;;;4951531;29;20423;-79
2021/06/11 02:09:35;;;;;;;3.10;2.80;;;25.60;56.80;;;;;;4937193;29;20420;-80
2021/06/11 02:12:02;;;;;;;2.70;2.50;;;25.60;56.80;;;;;;4955470;29;20429;-79
2021/06/11 02:14:29;;;;;;;2.60;2.40;;;25.60;56.80;;;;;;4970127;29;20432;-79
2021/06/11 02:17:01;;;;;;;2.60;2.40;;;25.60;56.80;;;;;;4978518;28;20422;-80
2021/06/11 02:19:36;;;;;;;2.93;2.70;;;25.60;56.80;;;;;;4977697;28;20429;-80
2021/06/11 02:22:08;;;;;;;3.07;2.77;;;25.60;56.70;;;;;;4978478;28;20481;-80
2021/06/11 02:24:38;;;;;;;2.60;2.40;;;25.60;56.70;;;;;;4979057;28;20414;-78
2021/06/11 02:27:12;;;;;;;2.97;2.77;;;25.60;56.70;;;;;;4978750;28;20404;-79
2021/06/11 02:29:40;;;;;;;2.50;2.30;;;25.60;56.60;;;;;;4977327;29;20406;-79
2021/06/11 02:32:07;;;;;;;2.70;2.50;;;25.60;56.60;;;;;;4977700;29;20424;-79
2021/06/11 02:34:38;;;;;;;2.93;2.73;;;25.60;56.60;;;;;;4978325;28;20429;-79
2021/06/11 02:37:04;;;;;;;2.73;2.53;;;25.60;56.60;;;;;;4977809;29;20426;-79
2021/06/11 02:39:33;;;;;;;2.93;2.73;;;25.60;56.50;;;;;;4978646;28;20483;-79
2021/06/11 02:42:03;;;;;;;2.77;2.57;;;25.60;56.50;;;;;;4978455;28;20438;-79
2021/06/11 02:44:39;;;;;;;2.47;2.27;;;25.70;56.60;;;;;;4977887;29;20452;-79
2021/06/11 02:47:24;;;;;;;2.43;2.23;;;25.60;56.50;;;;;;4974127;29;20409;-79
2021/06/11 02:49:58;;;;;;;2.80;2.60;;;25.70;56.50;;;;;;4972467;29;20496;-78
2021/06/11 02:52:28;;;;;;;2.80;2.60;;;25.60;56.60;;;;;;4972658;29;20432;-78
2021/06/11 02:55:00;;;;;;;2.60;2.40;;;25.60;56.50;;;;;;4972594;29;20422;-78
2021/06/11 02:57:44;;;;;;;2.43;2.23;;;25.60;56.50;;;;;;4973251;28;20399;-78
2021/06/11 03:00:13;;;;;;;3.20;2.90;;;25.70;56.50;;;;;;4973131;28;20445;-78
2021/06/11 03:02:52;;;;;;;2.60;2.40;;;25.60;56.50;;;;;;4971870;29;20457;-78
2021/06/11 03:05:21;;;;;;;2.40;2.20;;;25.60;56.50;;;;;;4968714;28;20406;-78
2021/06/11 03:07:49;;;;;;;2.50;2.30;;;25.60;56.50;;;;;;4968712;29;20407;-79
2021/06/11 03:10:16;;;;;;;2.53;2.33;;;25.60;56.50;;;;;;4952978;29;20411;-78
2021/06/11 03:12:44;;;;;;;2.60;2.40;;;25.60;56.50;;;;;;4951989;29;20437;-78
2021/06/11 03:15:11;;;;;;;2.63;2.43;;;25.60;56.50;;;;;;4953503;29;20433;-79
2021/06/11 03:17:58;;;;;;;2.50;2.30;;;25.60;56.50;;;;;;4952688;29;20427;-78
2021/06/11 03:20:28;;;;;;;2.73;2.53;;;25.60;56.40;;;;;;4953587;29;20399;-78
2021/06/11 03:23:08;;;;;;;2.57;2.37;;;25.60;56.50;;;;;;4952140;29;20459;-78
2021/06/11 03:25:58;;;;;;;2.10;1.97;;;25.60;56.50;;;;;;4952406;29;20431;-78
2021/06/11 03:28:49;;;;;;;2.13;1.93;;;25.60;56.50;;;;;;4952674;29;20435;-79
2021/06/11 03:31:39;;;;;;;2.90;2.53;;;25.60;56.50;;;;;;4953223;29;20418;-78
2021/06/11 03:34:09;;;;;;;2.83;2.63;;;25.60;56.50;;;;;;4958188;29;20421;-78
2021/06/11 03:36:40;;;;;;;2.20;2.00;;;25.60;56.60;;;;;;4956765;29;20407;-78
2021/06/11 03:39:12;;;;;;;2.70;2.50;;;25.60;56.50;;;;;;4976768;29;20470;-78
2021/06/11 03:41:38;;;;;;;2.43;2.23;;;25.60;56.60;;;;;;4976028;29;20421;-78
2021/06/11 03:44:09;;;;;;;2.63;2.43;;;25.60;56.60;;;;;;4976004;29;20420;-78
2021/06/11 03:46:39;;;;;;;3.00;2.67;;;25.60;56.50;;;;;;4976531;28;20439;-78
2021/06/11 03:49:07;;;;;;;2.70;2.50;;;25.60;56.60;;;;;;4975379;29;20414;-78
2021/06/11 03:51:34;;;;;;;2.60;2.40;;;25.60;56.50;;;;;;4975594;29;20494;-78
2021/06/11 03:54:07;;;;;;;2.20;2.10;;;25.60;56.60;;;;;;4974769;29;20422;-78
2021/06/11 03:56:36;;;;;;;2.57;2.37;;;25.60;56.50;;;;;;4976108;28;20390;-78
2021/06/11 03:59:04;;;;;;;2.60;2.40;;;25.60;56.60;;;;;;4976028;29;20489;-78
2021/06/11 04:01:38;;;;;;;2.30;2.10;;;25.60;56.60;;;;;;4975218;29;20418;-78
2021/06/11 04:04:06;;;;;;;2.60;2.40;;;25.60;56.60;;;;;;4975280;29;20413;-78
2021/06/11 04:06:39;;;;;;;2.80;2.60;;;25.60;57.10;;;;;;4975186;29;20426;-78
2021/06/11 04:09:11;;;;;;;2.57;2.37;;;25.60;56.60;;;;;;4974705;29;20444;-78
2021/06/11 04:11:43;;;;;;;2.80;2.60;;;25.50;56.50;;;;;;4974747;29;20925;-78
2021/06/11 04:14:14;;;;;;;2.40;2.20;;;25.60;56.60;;;;;;4974353;29;20418;-79
2021/06/11 04:16:46;;;;;;;2.60;2.40;;;25.60;56.60;;;;;;4974233;29;20442;-78
2021/06/11 04:19:24;;;;;;;2.37;2.17;;;25.60;56.60;;;;;;4975009;29;20422;-78
2021/06/11 04:21:52;;;;;;;2.70;2.50;;;25.60;56.60;;;;;;4975872;28;20418;-78
2021/06/11 04:24:28;;;;;;;2.70;2.50;;;25.60;56.60;;;;;;4973461;29;20510;-79
2021/06/11 04:26:57;;;;;;;2.27;1.90;;;25.60;56.60;;;;;;4971705;29;20421;-80
2021/06/11 04:29:24;;;;;;;3.10;2.80;;;25.60;56.60;;;;;;4972714;29;20988;-80
2021/06/11 04:31:53;;;;;;;2.40;2.20;;;25.60;56.70;;;;;;4972221;29;20457;-80
2021/06/11 04:34:24;;;;;;;2.20;2.00;;;25.60;56.60;;;;;;4972583;29;20796;-80
2021/06/11 04:36:51;;;;;;;2.77;2.50;;;25.60;56.60;;;;;;4972813;29;20485;-80
2021/06/11 04:39:17;;;;;;;2.43;2.23;;;25.60;56.70;;;;;;4972572;29;20525;-80
2021/06/11 04:41:43;;;;;;;3.00;2.43;;;25.60;56.70;;;;;;4973844;29;20421;-80
2021/06/11 04:44:09;;;;;;;2.60;2.40;;;25.60;56.70;;;;;;4972613;28;20453;-80
2021/06/11 04:46:37;;;;;;;2.80;2.40;;;25.60;56.70;;;;;;4973030;29;20437;-80
2021/06/11 04:49:06;;;;;;;2.63;2.43;;;25.60;56.60;;;;;;4971726;29;20430;-80
2021/06/11 04:51:36;;;;;;;2.27;2.10;;;25.60;56.60;;;;;;4971415;29;20426;-80
2021/06/11 04:54:02;;;;;;;2.60;2.40;;;25.60;56.60;;;;;;4971693;29;20458;-80
2021/06/11 04:56:28;;;;;;;2.43;2.23;;;25.50;56.60;;;;;;4971581;29;20426;-80
2021/06/11 04:58:55;;;;;;;2.77;2.57;;;25.60;56.60;;;;;;4960150;29;20825;-81
2021/06/11 05:01:29;;;;;;;2.63;2.43;;;25.60;56.60;;;;;;4952272;29;20471;-81
2021/06/11 05:04:01;;;;;;;3.23;2.93;;;25.60;56.50;;;;;;4952385;29;20454;-83
2021/06/11 05:06:27;;;;;;;2.90;2.70;;;25.60;56.50;;;;;;4968540;28;20455;-80
2021/06/11 05:09:14;;;;;;;4.57;2.67;;;25.60;56.50;;;;;;4953454;29;20423;-80
2021/06/11 05:11:40;;;;;;;3.13;2.63;;;25.60;56.40;;;;;;4968417;29;20431;-80
2021/06/11 05:14:08;;;;;;;2.47;2.27;;;25.60;56.40;;;;;;4954930;29;20916;-79
2021/06/11 05:16:34;;;;;;;3.07;2.83;;;25.60;56.40;;;;;;4970610;28;20455;-80
2021/06/11 05:19:02;;;;;;;2.73;2.53;;;25.60;56.40;;;;;;4955306;29;20458;-80
2021/06/11 05:21:31;;;;;;;1.93;1.83;;;25.60;56.40;;;;;;4971218;28;20179;-80
2021/06/11 05:24:25;;;;;;;2.60;2.40;;;25.60;56.40;;;;;;4956440;29;20494;-80
2021/06/11 05:33:15;;;;;;;3.03;2.83;;;25.60;56.40;;;;;;4938447;29;20432;-79
2021/06/11 05:35:56;;;;;;;2.80;2.60;;;25.60;56.40;;;;;;4925135;29;20416;-79
2021/06/11 05:38:33;;;;;;;4.57;2.87;;;25.70;56.50;;;;;;4940287;29;20416;-79
2021/06/11 05:41:10;;;;;;;2.40;2.20;;;25.60;56.50;;;;;;4922916;29;20431;-79
2021/06/11 05:43:40;;;;;;;2.40;2.20;;;25.70;56.50;;;;;;4906867;29;20469;-79
2021/06/11 05:46:06;;;;;;;2.73;2.30;;;25.60;56.40;;;;;;4938567;29;20420;-79
2021/06/11 05:48:36;;;;;;;2.30;2.10;;;25.60;56.40;;;;;;4922504;29;20455;-79
2021/06/11 05:51:25;;;;;;;2.93;2.73;;;25.60;56.40;;;;;;4924546;29;20479;-79
2021/06/11 05:54:21;;;;;;;3.00;2.80;;;25.70;56.50;;;;;;4916986;29;20431;-78
2021/06/11 05:59:57;;;;;;;2.93;2.73;;;25.70;56.40;;;;;;5096643;23;20480;-83
2021/06/11 06:09:11;;;;;;;3.23;2.63;;;25.60;56.60;;;;;;4902010;29;20936;-83
2021/06/11 06:12:25;;;;;;;5.37;3.00;;;25.60;56.60;;;;;;4884685;29;20436;-81
2021/06/11 06:14:58;;;;;;;3.50;3.20;;;25.70;56.60;;;;;;4940728;23;20571;-79
2021/06/11 06:17:31;;;;;;;2.87;2.67;;;25.60;56.70;;;;;;4954076;29;20415;-80
2021/06/11 06:20:01;;;;;;;3.90;3.60;;;25.60;56.70;;;;;;4954549;29;20431;-79
2021/06/11 06:22:27;;;;;;;5.00;3.20;;;25.70;56.80;;;;;;4953932;29;20497;-80
2021/06/11 06:24:53;;;;;;;5.00;2.63;;;25.70;56.80;;;;;;4954032;29;20533;-80
2021/06/11 06:27:21;;;;;;;3.03;2.80;;;25.80;56.80;;;;;;4960132;29;20423;-81
2021/06/11 06:30:17;;;;;;;;;;;;;;;;;;;;;
2021/06/11 06:33:25;;;;;;;3.00;2.80;;;25.80;56.70;;;;;;4958683;29;20423;-80
2021/06/11 06:36:14;;;;;;;2.70;2.50;;;25.80;56.60;;;;;;4930226;29;20498;-80
2021/06/11 06:39:23;;;;;;;3.17;2.87;;;25.80;56.60;;;;;;4958201;29;20423;-80
2021/06/11 06:42:12;;;;;;;3.30;3.00;;;25.80;56.60;;;;;;4957719;29;20526;-80
2021/06/11 06:48:07;;;;;;;4.10;3.80;;;25.90;56.60;;;;;;4958755;29;20399;-81
2021/06/11 06:50:37;;;;;;;3.80;3.50;;;25.90;56.50;;;;;;4949108;29;20420;-80
2021/06/11 06:53:05;;;;;;;3.53;3.10;;;25.90;56.60;;;;;;4933815;29;20499;-80
2021/06/11 06:55:31;;;;;;;3.40;3.10;;;25.90;56.50;;;;;;4934415;29;20790;-80
2021/06/11 06:57:59;;;;;;;3.50;3.10;;;25.90;56.50;;;;;;4934058;29;20454;-80
2021/06/11 07:00:26;;;;;;;3.33;3.03;;;25.90;56.40;;;;;;4950874;29;20427;-80
2021/06/11 07:02:54;;;;;;;4.50;4.17;;;25.90;56.30;;;;;;4934077;29;20487;-80
2021/06/11 07:05:20;;;;;;;3.50;3.20;;;26.00;56.40;;;;;;4934392;29;20442;-80
2021/06/11 07:07:46;;;;;;;3.47;3.13;;;25.90;56.30;;;;;;4950107;29;20492;-80
2021/06/11 07:10:12;;;;;;;3.53;3.20;;;26.00;56.30;;;;;;4936895;29;20740;-80
2021/06/11 07:12:46;;;;;;;5.23;3.67;;;26.00;56.90;;;;;;4936931;29;20199;-81
2021/06/11 07:15:15;;;;;;;3.27;2.97;;;26.00;56.30;;;;;;4936718;29;20508;-82
2021/06/11 07:17:47;;;;;;;4.50;3.30;;;26.00;56.30;;;;;;4938285;29;20431;-82
2021/06/11 07:23:39;;;;;;;3.47;3.17;;;26.10;56.30;;;;;;4939002;29;20450;-81
2021/06/11 07:26:12;;;;;;;4.60;4.20;;;26.00;56.20;;;;;;4936239;29;20472;-81
2021/06/11 07:28:41;;;;;;;5.30;3.43;;;26.00;56.30;;;;;;4936501;29;20424;-81
2021/06/11 07:31:14;;;;;;;4.30;3.80;;;26.00;56.20;;;;;;4935716;29;20423;-81
2021/06/11 07:33:48;;;;;;;4.50;4.10;;;26.00;56.70;;;;;;4920044;29;20432;-81
2021/06/11 07:36:17;;;;;;;4.20;3.80;;;26.00;56.20;;;;;;4936503;29;20500;-81
2021/06/11 07:38:45;;;;;;;4.60;4.10;;;26.00;56.20;;;;;;4936445;29;20440;-81
2021/06/11 07:41:16;;;;;;;4.00;3.60;;;25.90;56.20;;;;;;4936929;29;20488;-81
2021/06/11 07:43:45;;;;;;;3.60;3.30;;;26.00;56.30;;;;;;4936474;29;20496;-81
2021/06/11 07:46:23;;;;;;;4.23;3.87;;;26.00;56.20;;;;;;4936980;29;20424;-81
2021/06/11 07:48:53;;;;;;;3.57;3.27;;;26.00;56.20;;;;;;4936578;29;20416;-81
2021/06/11 07:51:25;;;;;;;3.37;3.07;;;26.00;56.20;;;;;;4935117;29;20416;-80
2021/06/11 07:53:58;;;;;;;4.00;3.70;;;26.00;56.20;;;;;;4951879;29;20435;-80
2021/06/11 07:56:25;;;;;;;3.70;3.40;;;26.10;56.30;;;;;;4935382;29;20423;-80
2021/06/11 07:58:52;;;;;;;4.10;3.80;;;26.10;56.30;;;;;;4935292;29;20420;-81
2021/06/11 08:01:18;;;;;;;3.50;3.20;;;26.00;56.20;;;;;;4934625;29;20465;-81
2021/06/11 08:03:49;;;;;;;3.83;3.47;;;26.00;56.20;;;;;;4933820;29;20452;-80
2021/06/11 08:06:16;;;;;;;3.70;3.40;;;26.10;56.20;;;;;;4934559;29;20199;-81
2021/06/11 08:08:43;;;;;;;3.40;3.10;;;26.10;56.20;;;;;;4934970;29;20420;-81
2021/06/11 08:11:34;;;;;;;3.70;3.40;;;26.10;56.30;;;;;;4950318;29;20444;-81
2021/06/11 08:14:02;;;;;;;3.60;3.30;;;26.10;56.20;;;;;;4934216;29;20452;-81
2021/06/11 08:16:30;;;;;;;3.60;3.30;;;26.10;56.20;;;;;;4934703;29;20411;-81
2021/06/11 08:19:01;;;;;;;4.00;3.70;;;26.10;56.20;;;;;;4936701;29;20459;-81
2021/06/11 08:21:28;;;;;;;3.60;3.30;;;26.10;56.20;;;;;;4953710;29;20426;-81
2021/06/11 08:23:55;;;;;;;4.00;3.70;;;26.10;56.20;;;;;;4938142;29;20487;-81
2021/06/11 08:26:27;;;;;;;3.33;3.13;;;26.10;56.10;;;;;;4938081;29;20416;-81
2021/06/11 08:28:54;;;;;;;3.83;3.53;;;26.10;56.10;;;;;;4938925;29;20416;-80
2021/06/11 08:31:24;;;;;;;4.00;3.63;;;26.20;56.20;;;;;;4938762;29;20420;-80
2021/06/11 08:33:50;;;;;;;3.80;3.50;;;26.10;56.10;;;;;;4939325;29;20420;-80
2021/06/11 08:36:17;;;;;;;4.17;3.73;;;26.10;56.10;;;;;;4939656;29;20443;-80
2021/06/11 08:38:45;;;;;;;3.70;3.40;;;26.10;56.10;;;;;;4955641;29;20428;-80
2021/06/11 08:41:13;;;;;;;4.00;3.70;;;26.10;56.20;;;;;;4940118;29;20432;-81
2021/06/11 08:43:39;;;;;;;3.87;3.57;;;26.10;56.10;;;;;;4940469;29;20459;-81
2021/06/11 08:46:07;;;;;;;3.90;3.60;;;26.20;56.20;;;;;;4939532;29;20439;-80
2021/06/11 08:48:40;;;;;;;4.00;3.60;;;26.10;56.10;;;;;;4938763;29;20428;-81
2021/06/11 08:51:12;;;;;;;4.23;3.87;;;26.20;56.20;;;;;;4938015;29;20408;-81
2021/06/11 08:53:40;;;;;;;4.57;4.17;;;26.20;56.20;;;;;;4938611;29;20459;-81
2021/06/11 08:56:27;;;;;;;3.93;3.63;;;26.20;56.20;;;;;;4940265;29;20423;-81
2021/06/11 08:59:04;;;;;;;4.33;4.03;;;26.20;56.20;;;;;;4952982;29;20432;-81
2021/06/11 09:01:40;;;;;;;4.20;3.80;;;26.20;56.30;;;;;;4938189;29;20472;-81
2021/06/11 09:04:07;;;;;;;4.07;3.77;;;26.10;56.10;;;;;;4938167;29;20415;-81
2021/06/11 09:06:34;;;;;;;4.87;4.47;;;26.20;56.30;;;;;;4921438;29;20427;-81
2021/06/11 09:09:04;;;;;;;4.53;4.13;;;26.20;56.30;;;;;;4937712;29;20427;-81
2021/06/11 09:11:40;;;;;;;4.17;3.87;;;26.20;56.20;;;;;;4939435;29;20404;-81
2021/06/11 09:14:12;;;;;;;4.90;4.50;;;26.20;56.20;;;;;;4939917;29;20471;-81
2021/06/11 09:16:55;;;;;;;3.40;3.10;;;26.30;56.30;;;;;;4940357;29;20424;-81
2021/06/11 09:19:26;;;;;;;4.27;3.97;;;26.20;56.20;;;;;;4938741;29;20447;-81
2021/06/11 09:22:15;;;;;;;4.47;4.07;;;26.20;56.20;;;;;;4938716;29;20432;-81
2021/06/11 09:24:44;;;;;;;3.53;3.23;;;26.30;56.20;;;;;;4938086;29;20423;-82
2021/06/11 09:27:22;;;;;;;3.80;3.50;;;26.20;56.30;;;;;;4937718;29;20428;-81
2021/06/11 09:29:56;;;;;;;3.40;3.10;;;26.20;56.20;;;;;;4937889;29;20396;-81
2021/06/11 09:32:26;;;;;;;3.83;3.53;;;26.20;56.20;;;;;;4922930;29;20444;-80
2021/06/11 09:35:07;;;;;;;3.83;3.53;;;26.20;56.20;;;;;;4937779;29;20424;-80
2021/06/11 09:37:38;;;;;;;3.90;3.60;;;26.20;56.20;;;;;;4938994;29;20408;-80
2021/06/11 09:40:10;;;;;;;3.80;3.50;;;26.20;56.20;;;;;;4938235;29;20420;-80
2021/06/11 09:42:39;;;;;;;4.30;4.00;;;26.20;56.30;;;;;;4954337;29;20499;-80
2021/06/11 09:45:12;;;;;;;4.13;3.83;;;26.20;56.30;;;;;;4936427;29;20444;-80
2021/06/11 09:51:24;;;;;;;4.53;4.13;;;26.20;56.30;;;;;;4898571;29;20488;-81
2021/06/11 09:53:52;;;;;;;4.60;4.30;;;26.10;56.40;;;;;;4916802;29;20431;-81
2021/06/11 09:56:30;;;;;;;5.40;4.90;;;26.10;56.40;;;;;;4937708;29;20448;-81
2021/06/11 09:59:49;;;;;;;;;;;;;;;;;;;;;
2021/06/11 10:05:47;;;;;;;5.57;5.17;;;26.10;56.40;;;;;;4938551;29;20396;-84
2021/06/11 10:08:28;;;;;;;8.10;6.53;;;26.10;56.40;;;;;;4938428;29;20385;-81
2021/06/11 10:11:05;;;;;;;6.37;5.87;;;26.00;56.20;;;;;;4939170;29;20408;-81
2021/06/11 10:14:01;;;;;;;7.80;7.20;;;26.00;56.30;;;;;;4936161;29;20391;-83
2021/06/11 10:16:38;;;;;;;7.43;6.77;;;26.00;56.00;;;;;;4937972;29;20447;-80
2021/06/11 10:19:04;;;;;;;7.67;7.10;;;26.00;56.10;;;;;;4938752;29;20425;-80
2021/06/11 10:21:30;;;;;;;8.80;8.00;;;26.00;55.90;;;;;;4939354;29;20479;-80
2021/06/11 10:23:58;;;;;;;8.37;7.70;;;26.00;55.30;;;;;;4939633;29;20839;-80
2021/06/11 10:26:28;;;;;;;8.70;8.00;;;26.00;55.00;;;;;;4938798;29;20476;-80
2021/06/11 10:29:04;;;;;;;7.57;6.87;;;26.00;55.10;;;;;;4938873;29;20439;-81
2021/06/11 10:31:37;;;;;;;8.03;7.33;;;26.00;55.30;;;;;;4919817;29;20424;-81
2021/06/11 10:34:07;;;;;;;6.63;6.03;;;26.00;55.40;;;;;;4933477;29;20431;-80
2021/06/11 10:36:39;;;;;;;6.43;5.93;;;26.00;55.50;;;;;;4934152;29;20424;-80
2021/06/11 10:39:30;;;;;;;6.90;6.40;;;26.00;55.70;;;;;;4933775;29;20508;-80
2021/06/11 10:42:08;;;;;;;7.17;6.53;;;25.90;55.80;;;;;;4880024;29;20433;-81
2021/06/11 10:44:49;;;;;;;5.77;5.37;;;26.00;55.90;;;;;;4880713;29;20430;-80
2021/06/11 10:47:17;;;;;;;8.17;7.47;;;25.90;55.90;;;;;;4895548;29;20451;-80
2021/06/11 10:49:56;;;;;;;8.53;7.70;;;25.90;55.90;;;;;;4879889;29;20425;-80
2021/06/11 10:52:53;;;;;;;7.13;6.53;;;25.90;55.60;;;;;;4879723;29;20522;-80
2021/06/11 10:55:23;;;;;;;6.03;5.53;;;26.00;55.40;;;;;;4821490;29;20436;-80
2021/06/11 10:58:01;;;;;;;7.40;6.80;;;25.90;55.50;;;;;;4807439;29;20429;-80
2021/06/11 11:00:34;;;;;;;7.13;6.53;;;25.90;55.20;;;;;;4807719;29;20458;-80
2021/06/11 11:03:03;;;;;;;7.17;6.47;;;25.90;55.00;;;;;;4823018;29;21082;-80
2021/06/11 11:05:32;;;;;;;7.13;6.53;;;25.90;55.00;;;;;;4822195;29;20421;-80
2021/06/11 11:08:00;;;;;;;6.40;5.90;;;25.90;54.90;;;;;;4822362;29;20437;-80
2021/06/11 11:10:48;;;;;;;6.93;6.30;;;25.90;55.10;;;;;;4822502;29;20433;-80
2021/06/11 11:13:21;;;;;;;9.57;6.50;;;25.90;55.10;;;;;;4825135;29;20433;-79
2021/06/11 11:16:16;;;;;;;7.37;6.80;;;25.90;55.30;;;;;;4827050;29;20456;-79
2021/06/11 11:21:56;;;;;;;6.63;6.03;;;25.90;55.00;;;;;;4834862;29;20419;-79
2021/06/11 11:24:24;;;;;;;6.87;6.27;;;25.90;55.10;;;;;;4845930;29;20423;-79
2021/06/11 11:27:10;;;;;;;6.30;5.80;;;25.90;54.90;;;;;;4830077;29;20504;-78
2021/06/11 11:30:28;;;;;;;7.10;6.50;;;25.90;54.80;;;;;;4826253;29;20435;-79
2021/06/11 11:36:26;;;;;;;5.60;5.20;;;25.90;54.80;;;;;;4939678;29;20379;-80
2021/06/11 11:38:52;;;;;;;6.83;6.27;;;25.90;55.10;;;;;;4938976;29;20442;-80
2021/06/11 11:41:21;;;;;;;7.23;6.63;;;25.90;54.60;;;;;;4954416;29;20475;-79
2021/06/11 11:43:48;;;;;;;6.20;5.70;;;25.90;54.40;;;;;;4938339;29;20470;-79
2021/06/11 11:46:27;;;;;;;5.97;5.47;;;25.90;54.70;;;;;;4938138;29;20414;-80
2021/06/11 11:48:55;;;;;;;6.90;6.40;;;25.90;54.90;;;;;;4938365;29;20395;-80
2021/06/11 11:51:58;;;;;;;;;;;;;;;;;;;;;
2021/06/11 11:54:49;;;;;;;6.07;5.60;;;25.90;55.00;;;;;;4941854;29;20420;-80
2021/06/11 11:58:06;;;;;;;7.00;6.30;;;25.90;54.80;;;;;;4941988;29;20498;-79
2021/06/11 12:00:40;;;;;;;6.47;5.97;;;25.90;54.30;;;;;;4941131;29;20411;-80
2021/06/11 12:09:40;;;;;;;7.27;6.67;;;25.90;53.80;;;;;;4946664;29;20544;-80
2021/06/11 12:12:11;;;;;;;6.27;5.67;;;25.90;53.60;;;;;;4950830;29;20423;-80
2021/06/11 12:14:50;;;;;;;6.47;5.97;;;25.90;53.40;;;;;;4947050;29;20431;-80
2021/06/11 12:17:39;;;;;;;6.60;6.07;;;26.00;53.00;;;;;;4950086;29;20433;-80
2021/06/11 12:20:07;;;;;;;6.90;6.30;;;25.90;52.70;;;;;;4944334;29;20447;-81
2021/06/11 12:22:37;;;;;;;6.07;5.67;;;25.90;52.70;;;;;;4938438;29;20550;-80
2021/06/11 12:25:09;;;;;;;6.20;5.70;;;25.90;52.80;;;;;;4958456;29;20916;-80
2021/06/11 12:27:42;;;;;;;6.83;6.23;;;26.00;52.60;;;;;;4943542;29;20412;-81
2021/06/11 12:30:15;;;;;;;6.07;5.63;;;26.00;52.50;;;;;;4927782;29;20443;-80
2021/06/11 12:32:43;;;;;;;6.40;5.83;;;26.00;52.50;;;;;;4925024;29;20427;-81
2021/06/11 12:35:31;;;;;;;6.50;6.00;;;26.00;52.00;;;;;;4941642;29;20432;-80
2021/06/11 12:38:02;;;;;;;6.93;5.83;;;26.00;51.50;;;;;;4926028;29;20472;-80
2021/06/11 12:40:28;;;;;;;6.20;5.60;;;25.90;52.10;;;;;;4926572;29;20435;-81
2021/06/11 12:43:03;;;;;;;5.83;5.33;;;25.90;52.10;;;;;;4943013;29;20463;-81
2021/06/11 12:45:42;;;;;;;6.30;5.70;;;25.90;52.30;;;;;;4925976;29;20430;-81
2021/06/11 12:48:33;;;;;;;5.60;5.10;;;25.90;51.70;;;;;;4942076;29;20440;-81
2021/06/11 12:51:05;;;;;;;5.17;4.77;;;25.90;52.20;;;;;;4926474;29;20423;-81
2021/06/11 12:53:31;;;;;;;5.50;5.00;;;25.90;52.60;;;;;;4942247;29;20431;-81
2021/06/11 12:55:57;;;;;;;5.70;5.30;;;25.90;52.70;;;;;;4926289;29;20428;-81
2021/06/11 12:58:41;;;;;;;5.20;4.70;;;25.90;52.80;;;;;;4926311;29;20468;-81
2021/06/11 13:01:07;;;;;;;5.60;5.20;;;25.90;53.10;;;;;;4926185;29;20428;-81
2021/06/11 13:03:53;;;;;;;6.67;6.17;;;25.90;52.70;;;;;;4925824;29;20518;-81
2021/06/11 13:06:33;;;;;;;5.50;5.10;;;26.00;52.30;;;;;;4941895;29;20479;-81
2021/06/11 13:09:06;;;;;;;5.60;5.20;;;25.90;52.40;;;;;;4926476;29;20581;-81
2021/06/11 13:11:33;;;;;;;6.00;5.60;;;25.90;52.40;;;;;;4942035;29;20420;-81
2021/06/11 13:14:06;;;;;;;5.47;4.87;;;25.90;52.20;;;;;;4925812;29;20448;-81
2021/06/11 13:16:41;;;;;;;13.50;5.70;;;25.90;52.00;;;;;;4942513;29;20412;-81
2021/06/11 13:19:09;;;;;;;6.80;5.70;;;25.90;51.90;;;;;;4925666;29;20419;-81
2021/06/11 13:21:45;;;;;;;5.63;5.13;;;25.90;51.70;;;;;;4942565;29;20380;-81
2021/06/11 13:24:12;;;;;;;5.90;5.40;;;25.90;51.80;;;;;;4921414;29;20452;-81
2021/06/11 13:26:42;;;;;;;5.60;5.20;;;25.90;51.80;;;;;;4926325;29;20412;-81
2021/06/11 13:29:15;;;;;;;6.17;5.67;;;26.00;51.20;;;;;;4942058;29;20428;-82
2021/06/11 13:31:44;;;;;;;6.60;6.10;;;26.00;51.00;;;;;;4940402;29;20420;-81
2021/06/11 13:34:15;;;;;;;5.50;5.10;;;26.00;51.00;;;;;;4942753;29;20434;-80
2021/06/11 13:36:42;;;;;;;5.20;4.70;;;26.00;51.30;;;;;;4926417;29;20172;-81
2021/06/11 13:39:17;;;;;;;5.73;5.33;;;26.00;51.60;;;;;;4943042;29;20444;-81
2021/06/11 13:41:46;;;;;;;6.17;5.57;;;26.00;51.80;;;;;;4926225;29;20483;-81
2021/06/11 13:44:40;;;;;;;6.33;5.83;;;25.90;52.10;;;;;;4926144;29;20496;-81
2021/06/11 13:50:58;;;;;;;6.33;5.83;;;25.90;51.90;;;;;;4942005;23;20429;-81
2021/06/11 13:56:09;;;;;;;6.30;5.80;;;25.90;51.70;;;;;;5524315;23;20499;-83
2021/06/11 13:58:38;;;;;;;5.70;5.30;;;25.90;52.00;;;;;;4954379;29;20502;-81
2021/06/11 14:01:21;;;;;;;6.00;5.53;;;25.90;51.90;;;;;;4939799;29;20427;-81
2021/06/11 14:04:15;;;;;;;5.73;5.30;;;25.90;52.00;;;;;;4954250;29;20447;-80
2021/06/11 14:06:45;;;;;;;5.80;5.30;;;25.90;52.20;;;;;;4950283;29;20456;-81
2021/06/11 14:09:19;;;;;;;5.73;5.27;;;25.90;52.10;;;;;;4946247;29;20403;-81